sensor_id;sensor_type;location;lat;lon;timestamp;P1;durP1;ratioP1;P2;durP2;ratioP2
19623;SDS011;9959;49.798;9.928;2023-01-10T00:02:21;3.17;;;1.90;;
19623;SDS011;9959;49.798;9.928;2023-01-10T00:04:48;5.90;;;2.30;;
19623;SDS011;9959;49.798;9.928;2023-01-10T00:07:15;4.88;;;2.17;;
19623;SDS011;9959;49.798;9.928;2023-01-10T00:09:41;4.10;;;2.03;;
19623;SDS011;9959;49.798;9.928;2023-01-10T00:12:08;4.82;;;2.10;;
19623;SDS011;9959;49.798;9.928;2023-01-10T00:14:45;3.75;;;2.22;;
19623;SDS011;9959;49.798;9.928;2023-01-10T00:17:11;5.53;;;2.00;;
19623;SDS011;9959;49.798;9.928;2023-01-10T00:19:38;4.13;;;2.10;;
19623;SDS011;9959;49.798;9.928;2023-01-10T00:22:05;1.92;;;1.67;;
19623;SDS011;9959;49.798;9.928;2023-01-10T00:24:33;4.60;;;1.85;;
19623;SDS011;9959;49.798;9.928;2023-01-10T00:27:00;3.10;;;2.10;;
19623;SDS011;9959;49.798;9.928;2023-01-10T00:29:28;3.95;;;2.30;;
19623;SDS011;9959;49.798;9.928;2023-01-10T00:32:00;4.18;;;2.17;;
19623;SDS011;9959;49.798;9.928;2023-01-10T00:34:27;5.72;;;2.38;;
19623;SDS011;9959;49.798;9.928;2023-01-10T00:36:54;3.10;;;2.20;;
19623;SDS011;9959;49.798;9.928;2023-01-10T00:39:20;5.88;;;2.50;;
19623;SDS011;9959;49.798;9.928;2023-01-10T00:41:49;3.17;;;2.05;;
19623;SDS011;9959;49.798;9.928;2023-01-10T00:44:35;6.35;;;2.55;;
19623;SDS011;9959;49.798;9.928;2023-01-10T00:47:02;4.43;;;2.72;;
19623;SDS011;9959;49.798;9.928;2023-01-10T00:49:29;5.60;;;2.35;;
19623;SDS011;9959;49.798;9.928;2023-01-10T00:51:55;5.35;;;2.60;;
19623;SDS011;9959;49.798;9.928;2023-01-10T00:54:23;4.90;;;2.55;;
19623;SDS011;9959;49.798;9.928;2023-01-10T00:56:51;4.50;;;2.78;;
19623;SDS011;9959;49.798;9.928;2023-01-10T00:59:17;7.07;;;2.78;;
19623;SDS011;9959;49.798;9.928;2023-01-10T01:01:44;6.28;;;3.10;;
19623;SDS011;9959;49.798;9.928;2023-01-10T01:04:11;3.63;;;2.85;;
19623;SDS011;9959;49.798;9.928;2023-01-10T01:06:38;5.55;;;3.25;;
19623;SDS011;9959;49.798;9.928;2023-01-10T01:09:04;5.68;;;3.20;;
19623;SDS011;9959;49.798;9.928;2023-01-10T01:11:31;6.20;;;3.40;;
19623;SDS011;9959;49.798;9.928;2023-01-10T01:13:58;5.47;;;3.05;;
19623;SDS011;9959;49.798;9.928;2023-01-10T01:16:24;4.38;;;2.92;;
19623;SDS011;9959;49.798;9.928;2023-01-10T01:18:51;3.88;;;3.13;;
19623;SDS011;9959;49.798;9.928;2023-01-10T01:21:18;5.35;;;3.42;;
19623;SDS011;9959;49.798;9.928;2023-01-10T01:23:47;6.25;;;3.30;;
19623;SDS011;9959;49.798;9.928;2023-01-10T01:26:16;6.18;;;3.50;;
19623;SDS011;9959;49.798;9.928;2023-01-10T01:28:43;3.80;;;3.15;;
19623;SDS011;9959;49.798;9.928;2023-01-10T01:31:09;5.28;;;3.65;;
19623;SDS011;9959;49.798;9.928;2023-01-10T01:33:37;10.20;;;3.00;;
19623;SDS011;9959;49.798;9.928;2023-01-10T01:36:06;4.07;;;2.97;;
19623;SDS011;9959;49.798;9.928;2023-01-10T01:38:38;5.50;;;3.50;;
19623;SDS011;9959;49.798;9.928;2023-01-10T01:41:06;5.50;;;3.20;;
19623;SDS011;9959;49.798;9.928;2023-01-10T01:43:58;9.23;;;3.20;;
19623;SDS011;9959;49.798;9.928;2023-01-10T01:46:26;7.05;;;3.15;;
19623;SDS011;9959;49.798;9.928;2023-01-10T01:48:53;5.57;;;3.63;;
19623;SDS011;9959;49.798;9.928;2023-01-10T01:51:25;4.45;;;3.15;;
19623;SDS011;9959;49.798;9.928;2023-01-10T01:53:57;6.15;;;4.00;;
19623;SDS011;9959;49.798;9.928;2023-01-10T01:56:39;5.22;;;3.60;;
19623;SDS011;9959;49.798;9.928;2023-01-10T01:59:13;5.40;;;3.67;;
19623;SDS011;9959;49.798;9.928;2023-01-10T02:01:44;8.93;;;4.25;;
19623;SDS011;9959;49.798;9.928;2023-01-10T02:06:45;6.22;;;3.90;;
19623;SDS011;9959;49.798;9.928;2023-01-10T02:09:21;5.55;;;3.58;;
19623;SDS011;9959;49.798;9.928;2023-01-10T02:11:46;6.15;;;3.83;;
19623;SDS011;9959;49.798;9.928;2023-01-10T02:14:13;5.70;;;3.90;;
19623;SDS011;9959;49.798;9.928;2023-01-10T02:16:40;6.15;;;3.97;;
19623;SDS011;9959;49.798;9.928;2023-01-10T02:19:12;5.43;;;3.47;;
19623;SDS011;9959;49.798;9.928;2023-01-10T02:22:00;6.13;;;3.72;;
19623;SDS011;9959;49.798;9.928;2023-01-10T02:35:48;8.95;;;3.78;;
19623;SDS011;9959;49.798;9.928;2023-01-10T02:43:50;7.03;;;3.35;;
19623;SDS011;9959;49.798;9.928;2023-01-10T02:46:26;7.93;;;3.17;;
19623;SDS011;9959;49.798;9.928;2023-01-10T02:48:55;6.53;;;3.65;;
19623;SDS011;9959;49.798;9.928;2023-01-10T02:51:23;5.70;;;2.80;;
19623;SDS011;9959;49.798;9.928;2023-01-10T02:53:59;4.60;;;2.78;;
19623;SDS011;9959;49.798;9.928;2023-01-10T02:56:37;4.25;;;2.78;;
19623;SDS011;9959;49.798;9.928;2023-01-10T03:10:41;4.90;;;3.22;;
19623;SDS011;9959;49.798;9.928;2023-01-10T03:13:18;6.13;;;3.55;;
19623;SDS011;9959;49.798;9.928;2023-01-10T03:15:47;9.68;;;3.50;;
19623;SDS011;9959;49.798;9.928;2023-01-10T03:18:18;10.68;;;3.55;;
19623;SDS011;9959;49.798;9.928;2023-01-10T03:20:47;8.82;;;4.50;;
19623;SDS011;9959;49.798;9.928;2023-01-10T03:23:17;9.70;;;3.67;;
19623;SDS011;9959;49.798;9.928;2023-01-10T03:25:46;8.27;;;3.40;;
19623;SDS011;9959;49.798;9.928;2023-01-10T03:28:16;9.52;;;3.53;;
19623;SDS011;9959;49.798;9.928;2023-01-10T03:30:50;6.28;;;3.10;;
19623;SDS011;9959;49.798;9.928;2023-01-10T03:33:27;7.10;;;3.35;;
19623;SDS011;9959;49.798;9.928;2023-01-10T03:36:10;6.93;;;3.30;;
19623;SDS011;9959;49.798;9.928;2023-01-10T03:38:52;7.32;;;3.70;;
19623;SDS011;9959;49.798;9.928;2023-01-10T03:46:46;6.80;;;3.13;;
19623;SDS011;9959;49.798;9.928;2023-01-10T03:49:20;11.43;;;4.55;;
19623;SDS011;9959;49.798;9.928;2023-01-10T03:51:47;9.13;;;3.30;;
19623;SDS011;9959;49.798;9.928;2023-01-10T03:54:15;4.00;;;2.92;;
19623;SDS011;9959;49.798;9.928;2023-01-10T03:59:12;5.43;;;3.28;;
19623;SDS011;9959;49.798;9.928;2023-01-10T04:01:39;7.90;;;3.50;;
19623;SDS011;9959;49.798;9.928;2023-01-10T04:04:06;5.80;;;3.55;;
19623;SDS011;9959;49.798;9.928;2023-01-10T04:06:33;8.10;;;3.45;;
19623;SDS011;9959;49.798;9.928;2023-01-10T04:08:59;5.88;;;3.33;;
19623;SDS011;9959;49.798;9.928;2023-01-10T04:11:26;10.88;;;3.53;;
19623;SDS011;9959;49.798;9.928;2023-01-10T04:13:53;8.80;;;3.28;;
19623;SDS011;9959;49.798;9.928;2023-01-10T04:16:20;6.20;;;3.33;;
19623;SDS011;9959;49.798;9.928;2023-01-10T04:18:47;13.57;;;3.92;;
19623;SDS011;9959;49.798;9.928;2023-01-10T04:21:14;8.48;;;3.40;;
19623;SDS011;9959;49.798;9.928;2023-01-10T04:23:41;8.60;;;3.88;;
19623;SDS011;9959;49.798;9.928;2023-01-10T04:26:07;6.90;;;3.65;;
19623;SDS011;9959;49.798;9.928;2023-01-10T04:28:34;8.25;;;4.03;;
19623;SDS011;9959;49.798;9.928;2023-01-10T04:31:01;8.10;;;3.55;;
19623;SDS011;9959;49.798;9.928;2023-01-10T04:33:28;8.90;;;3.28;;
19623;SDS011;9959;49.798;9.928;2023-01-10T04:35:55;8.85;;;3.47;;
19623;SDS011;9959;49.798;9.928;2023-01-10T04:38:22;6.30;;;3.35;;
19623;SDS011;9959;49.798;9.928;2023-01-10T04:40:52;5.07;;;2.95;;
19623;SDS011;9959;49.798;9.928;2023-01-10T04:43:21;4.18;;;2.90;;
19623;SDS011;9959;49.798;9.928;2023-01-10T04:45:49;10.40;;;3.63;;
19623;SDS011;9959;49.798;9.928;2023-01-10T04:48:16;5.10;;;2.97;;
19623;SDS011;9959;49.798;9.928;2023-01-10T04:50:50;4.93;;;2.50;;
19623;SDS011;9959;49.798;9.928;2023-01-10T04:53:18;8.25;;;2.50;;
19623;SDS011;9959;49.798;9.928;2023-01-10T04:55:45;5.68;;;2.72;;
19623;SDS011;9959;49.798;9.928;2023-01-10T04:58:12;7.28;;;2.78;;
19623;SDS011;9959;49.798;9.928;2023-01-10T05:00:39;6.00;;;2.20;;
19623;SDS011;9959;49.798;9.928;2023-01-10T05:03:07;6.13;;;2.22;;
19623;SDS011;9959;49.798;9.928;2023-01-10T05:05:33;3.45;;;2.30;;
19623;SDS011;9959;49.798;9.928;2023-01-10T05:08:00;6.25;;;1.90;;
19623;SDS011;9959;49.798;9.928;2023-01-10T05:10:27;6.28;;;2.08;;
19623;SDS011;9959;49.798;9.928;2023-01-10T05:12:54;9.38;;;2.45;;
19623;SDS011;9959;49.798;9.928;2023-01-10T05:15:20;7.20;;;2.35;;
19623;SDS011;9959;49.798;9.928;2023-01-10T05:17:48;4.53;;;2.10;;
19623;SDS011;9959;49.798;9.928;2023-01-10T05:20:16;6.65;;;2.20;;
19623;SDS011;9959;49.798;9.928;2023-01-10T05:22:43;6.47;;;2.33;;
19623;SDS011;9959;49.798;9.928;2023-01-10T05:25:11;6.18;;;1.70;;
19623;SDS011;9959;49.798;9.928;2023-01-10T05:27:39;6.93;;;2.08;;
19623;SDS011;9959;49.798;9.928;2023-01-10T05:30:11;6.85;;;2.40;;
19623;SDS011;9959;49.798;9.928;2023-01-10T05:32:38;5.00;;;2.20;;
19623;SDS011;9959;49.798;9.928;2023-01-10T05:35:06;5.72;;;2.17;;
19623;SDS011;9959;49.798;9.928;2023-01-10T05:37:33;4.95;;;2.30;;
19623;SDS011;9959;49.798;9.928;2023-01-10T05:39:59;10.95;;;2.47;;
19623;SDS011;9959;49.798;9.928;2023-01-10T05:42:26;7.28;;;2.22;;
19623;SDS011;9959;49.798;9.928;2023-01-10T05:44:53;7.82;;;2.50;;
19623;SDS011;9959;49.798;9.928;2023-01-10T05:47:20;8.90;;;2.60;;
19623;SDS011;9959;49.798;9.928;2023-01-10T05:49:46;6.63;;;1.90;;
19623;SDS011;9959;49.798;9.928;2023-01-10T05:52:13;6.53;;;2.50;;
19623;SDS011;9959;49.798;9.928;2023-01-10T05:54:40;9.85;;;2.50;;
19623;SDS011;9959;49.798;9.928;2023-01-10T05:57:07;7.82;;;2.63;;
19623;SDS011;9959;49.798;9.928;2023-01-10T05:59:34;6.97;;;2.22;;
19623;SDS011;9959;49.798;9.928;2023-01-10T06:02:00;7.45;;;2.75;;
19623;SDS011;9959;49.798;9.928;2023-01-10T06:04:27;5.75;;;2.40;;
19623;SDS011;9959;49.798;9.928;2023-01-10T06:06:54;9.90;;;2.58;;
19623;SDS011;9959;49.798;9.928;2023-01-10T06:09:23;6.85;;;2.20;;
19623;SDS011;9959;49.798;9.928;2023-01-10T06:11:50;9.10;;;2.60;;
19623;SDS011;9959;49.798;9.928;2023-01-10T06:14:16;4.85;;;2.50;;
19623;SDS011;9959;49.798;9.928;2023-01-10T06:16:48;3.90;;;1.83;;
19623;SDS011;9959;49.798;9.928;2023-01-10T06:19:15;7.75;;;2.25;;
19623;SDS011;9959;49.798;9.928;2023-01-10T06:21:42;5.75;;;2.10;;
19623;SDS011;9959;49.798;9.928;2023-01-10T06:24:09;8.52;;;2.65;;
19623;SDS011;9959;49.798;9.928;2023-01-10T06:26:36;10.95;;;3.28;;
19623;SDS011;9959;49.798;9.928;2023-01-10T06:29:02;6.38;;;2.45;;
19623;SDS011;9959;49.798;9.928;2023-01-10T06:31:29;9.27;;;2.65;;
19623;SDS011;9959;49.798;9.928;2023-01-10T06:33:56;8.70;;;3.00;;
19623;SDS011;9959;49.798;9.928;2023-01-10T06:36:23;8.02;;;2.38;;
19623;SDS011;9959;49.798;9.928;2023-01-10T06:38:50;12.35;;;2.72;;
19623;SDS011;9959;49.798;9.928;2023-01-10T06:41:16;7.07;;;2.35;;
19623;SDS011;9959;49.798;9.928;2023-01-10T06:43:44;6.55;;;2.38;;
19623;SDS011;9959;49.798;9.928;2023-01-10T06:46:13;9.35;;;2.40;;
19623;SDS011;9959;49.798;9.928;2023-01-10T06:48:42;9.68;;;2.47;;
19623;SDS011;9959;49.798;9.928;2023-01-10T06:51:14;6.63;;;2.13;;
19623;SDS011;9959;49.798;9.928;2023-01-10T06:53:45;11.23;;;3.15;;
19623;SDS011;9959;49.798;9.928;2023-01-10T06:56:11;10.73;;;3.47;;
19623;SDS011;9959;49.798;9.928;2023-01-10T06:58:38;8.63;;;2.75;;
19623;SDS011;9959;49.798;9.928;2023-01-10T07:01:06;11.65;;;2.40;;
19623;SDS011;9959;49.798;9.928;2023-01-10T07:03:38;13.57;;;2.80;;
19623;SDS011;9959;49.798;9.928;2023-01-10T07:06:06;7.65;;;2.47;;
19623;SDS011;9959;49.798;9.928;2023-01-10T07:08:39;8.98;;;3.17;;
19623;SDS011;9959;49.798;9.928;2023-01-10T07:11:07;10.95;;;2.83;;
19623;SDS011;9959;49.798;9.928;2023-01-10T07:13:35;8.02;;;2.60;;
19623;SDS011;9959;49.798;9.928;2023-01-10T07:16:03;10.00;;;2.60;;
19623;SDS011;9959;49.798;9.928;2023-01-10T07:18:31;10.95;;;2.72;;
19623;SDS011;9959;49.798;9.928;2023-01-10T07:20:59;10.75;;;2.72;;
19623;SDS011;9959;49.798;9.928;2023-01-10T07:23:26;5.78;;;2.50;;
19623;SDS011;9959;49.798;9.928;2023-01-10T07:25:52;8.52;;;2.42;;
19623;SDS011;9959;49.798;9.928;2023-01-10T07:28:19;10.82;;;2.65;;
19623;SDS011;9959;49.798;9.928;2023-01-10T07:30:46;10.05;;;3.10;;
19623;SDS011;9959;49.798;9.928;2023-01-10T07:33:12;7.70;;;2.78;;
19623;SDS011;9959;49.798;9.928;2023-01-10T07:35:39;13.43;;;3.00;;
19623;SDS011;9959;49.798;9.928;2023-01-10T07:38:06;11.02;;;2.80;;
19623;SDS011;9959;49.798;9.928;2023-01-10T07:40:34;10.52;;;2.70;;
19623;SDS011;9959;49.798;9.928;2023-01-10T07:43:01;6.85;;;2.72;;
19623;SDS011;9959;49.798;9.928;2023-01-10T07:45:28;5.47;;;2.47;;
19623;SDS011;9959;49.798;9.928;2023-01-10T07:47:59;8.73;;;2.72;;
19623;SDS011;9959;49.798;9.928;2023-01-10T07:50:28;7.45;;;3.03;;
19623;SDS011;9959;49.798;9.928;2023-01-10T07:52:57;8.35;;;2.55;;
19623;SDS011;9959;49.798;9.928;2023-01-10T07:55:25;12.38;;;3.20;;
19623;SDS011;9959;49.798;9.928;2023-01-10T07:57:52;4.05;;;2.30;;
19623;SDS011;9959;49.798;9.928;2023-01-10T08:00:19;8.25;;;2.67;;
19623;SDS011;9959;49.798;9.928;2023-01-10T08:02:45;10.93;;;2.45;;
19623;SDS011;9959;49.798;9.928;2023-01-10T08:05:12;8.60;;;2.70;;
19623;SDS011;9959;49.798;9.928;2023-01-10T08:07:40;8.13;;;2.55;;
19623;SDS011;9959;49.798;9.928;2023-01-10T08:10:07;9.27;;;2.63;;
19623;SDS011;9959;49.798;9.928;2023-01-10T08:12:34;6.70;;;2.10;;
19623;SDS011;9959;49.798;9.928;2023-01-10T08:15:01;8.90;;;2.80;;
19623;SDS011;9959;49.798;9.928;2023-01-10T08:17:28;5.38;;;2.67;;
19623;SDS011;9959;49.798;9.928;2023-01-10T08:19:57;12.82;;;2.75;;
19623;SDS011;9959;49.798;9.928;2023-01-10T08:22:24;8.77;;;2.85;;
19623;SDS011;9959;49.798;9.928;2023-01-10T08:24:51;7.10;;;2.58;;
19623;SDS011;9959;49.798;9.928;2023-01-10T08:27:18;11.32;;;2.88;;
19623;SDS011;9959;49.798;9.928;2023-01-10T08:29:45;9.35;;;2.45;;
19623;SDS011;9959;49.798;9.928;2023-01-10T08:32:11;6.97;;;2.75;;
19623;SDS011;9959;49.798;9.928;2023-01-10T08:34:38;7.78;;;3.03;;
19623;SDS011;9959;49.798;9.928;2023-01-10T08:37:05;7.00;;;3.10;;
19623;SDS011;9959;49.798;9.928;2023-01-10T08:39:32;13.25;;;2.70;;
19623;SDS011;9959;49.798;9.928;2023-01-10T08:42:00;9.00;;;3.05;;
19623;SDS011;9959;49.798;9.928;2023-01-10T08:44:27;6.28;;;2.60;;
19623;SDS011;9959;49.798;9.928;2023-01-10T08:46:54;9.60;;;2.63;;
19623;SDS011;9959;49.798;9.928;2023-01-10T08:49:22;5.68;;;2.80;;
19623;SDS011;9959;49.798;9.928;2023-01-10T08:51:49;11.85;;;2.83;;
19623;SDS011;9959;49.798;9.928;2023-01-10T08:54:15;9.95;;;3.15;;
19623;SDS011;9959;49.798;9.928;2023-01-10T08:56:42;12.07;;;3.28;;
19623;SDS011;9959;49.798;9.928;2023-01-10T08:59:09;8.70;;;2.58;;
19623;SDS011;9959;49.798;9.928;2023-01-10T09:01:35;8.15;;;3.53;;
19623;SDS011;9959;49.798;9.928;2023-01-10T09:04:02;15.57;;;2.95;;
19623;SDS011;9959;49.798;9.928;2023-01-10T09:06:30;11.38;;;2.88;;
19623;SDS011;9959;49.798;9.928;2023-01-10T09:08:57;16.77;;;3.13;;
19623;SDS011;9959;49.798;9.928;2023-01-10T09:11:24;11.00;;;3.33;;
19623;SDS011;9959;49.798;9.928;2023-01-10T09:13:51;11.93;;;3.38;;
19623;SDS011;9959;49.798;9.928;2023-01-10T09:16:17;11.65;;;3.15;;
19623;SDS011;9959;49.798;9.928;2023-01-10T09:18:44;10.50;;;2.83;;
19623;SDS011;9959;49.798;9.928;2023-01-10T09:21:11;6.45;;;2.90;;
19623;SDS011;9959;49.798;9.928;2023-01-10T09:23:38;13.82;;;3.42;;
19623;SDS011;9959;49.798;9.928;2023-01-10T09:26:05;8.15;;;3.45;;
19623;SDS011;9959;49.798;9.928;2023-01-10T09:28:32;11.52;;;2.92;;
19623;SDS011;9959;49.798;9.928;2023-01-10T09:30:59;9.98;;;3.15;;
19623;SDS011;9959;49.798;9.928;2023-01-10T09:33:30;10.30;;;3.30;;
19623;SDS011;9959;49.798;9.928;2023-01-10T09:36:11;17.63;;;4.65;;
19623;SDS011;9959;49.798;9.928;2023-01-10T09:38:41;17.92;;;4.80;;
19623;SDS011;9959;49.798;9.928;2023-01-10T09:54:54;6.25;;;2.95;;
19623;SDS011;9959;49.798;9.928;2023-01-10T09:57:24;13.75;;;3.90;;
19623;SDS011;9959;49.798;9.928;2023-01-10T09:59:51;13.90;;;3.20;;
19623;SDS011;9959;49.798;9.928;2023-01-10T10:04:59;6.22;;;2.05;;
19623;SDS011;9959;49.798;9.928;2023-01-10T10:07:34;13.27;;;3.55;;
19623;SDS011;9959;49.798;9.928;2023-01-10T10:10:03;10.77;;;3.20;;
19623;SDS011;9959;49.798;9.928;2023-01-10T10:12:42;7.97;;;2.90;;
19623;SDS011;9959;49.798;9.928;2023-01-10T10:25:33;9.80;;;2.90;;
19623;SDS011;9959;49.798;9.928;2023-01-10T10:31:14;10.52;;;3.42;;
19623;SDS011;9959;49.798;9.928;2023-01-10T10:38:46;13.13;;;3.13;;
19623;SDS011;9959;49.798;9.928;2023-01-10T10:43:46;10.20;;;3.13;;
19623;SDS011;9959;49.798;9.928;2023-01-10T10:46:15;17.40;;;3.38;;
19623;SDS011;9959;49.798;9.928;2023-01-10T10:51:16;12.20;;;3.03;;
19623;SDS011;9959;49.798;9.928;2023-01-10T10:53:47;10.10;;;3.05;;
19623;SDS011;9959;49.798;9.928;2023-01-10T10:56:15;6.28;;;2.90;;
19623;SDS011;9959;49.798;9.928;2023-01-10T10:58:45;14.45;;;2.83;;
19623;SDS011;9959;49.798;9.928;2023-01-10T11:01:15;9.52;;;2.80;;
19623;SDS011;9959;49.798;9.928;2023-01-10T11:03:53;12.80;;;3.42;;
19623;SDS011;9959;49.798;9.928;2023-01-10T11:06:24;13.43;;;3.28;;
19623;SDS011;9959;49.798;9.928;2023-01-10T11:08:54;15.95;;;3.60;;
19623;SDS011;9959;49.798;9.928;2023-01-10T11:16:27;12.90;;;3.95;;
19623;SDS011;9959;49.798;9.928;2023-01-10T11:19:19;9.10;;;2.33;;
19623;SDS011;9959;49.798;9.928;2023-01-10T11:21:47;11.52;;;2.25;;
19623;SDS011;9959;49.798;9.928;2023-01-10T11:24:19;13.60;;;2.72;;
19623;SDS011;9959;49.798;9.928;2023-01-10T11:26:45;10.32;;;2.33;;
19623;SDS011;9959;49.798;9.928;2023-01-10T11:31:48;9.05;;;2.80;;
19623;SDS011;9959;49.798;9.928;2023-01-10T11:36:52;10.75;;;2.45;;
19623;SDS011;9959;49.798;9.928;2023-01-10T11:39:21;15.88;;;2.75;;
19623;SDS011;9959;49.798;9.928;2023-01-10T11:41:48;9.82;;;2.40;;
19623;SDS011;9959;49.798;9.928;2023-01-10T11:46:48;10.57;;;3.10;;
19623;SDS011;9959;49.798;9.928;2023-01-10T11:49:24;8.15;;;3.00;;
19623;SDS011;9959;49.798;9.928;2023-01-10T11:51:50;8.57;;;2.25;;
19623;SDS011;9959;49.798;9.928;2023-01-10T11:54:22;11.30;;;2.80;;
19623;SDS011;9959;49.798;9.928;2023-01-10T11:57:02;5.40;;;1.67;;
19623;SDS011;9959;49.798;9.928;2023-01-10T11:59:33;18.35;;;2.97;;
19623;SDS011;9959;49.798;9.928;2023-01-10T12:02:02;13.50;;;2.70;;
19623;SDS011;9959;49.798;9.928;2023-01-10T12:04:41;7.10;;;2.42;;
19623;SDS011;9959;49.798;9.928;2023-01-10T12:07:10;15.32;;;2.50;;
19623;SDS011;9959;49.798;9.928;2023-01-10T12:12:19;7.30;;;2.38;;
19623;SDS011;9959;49.798;9.928;2023-01-10T12:14:48;11.18;;;2.90;;
19623;SDS011;9959;49.798;9.928;2023-01-10T12:17:19;10.63;;;2.67;;
19623;SDS011;9959;49.798;9.928;2023-01-10T12:19:48;13.57;;;2.88;;
19623;SDS011;9959;49.798;9.928;2023-01-10T12:22:19;13.45;;;3.05;;
19623;SDS011;9959;49.798;9.928;2023-01-10T12:24:47;8.18;;;2.60;;
19623;SDS011;9959;49.798;9.928;2023-01-10T12:27:17;12.60;;;3.15;;
19623;SDS011;9959;49.798;9.928;2023-01-10T12:29:55;12.10;;;2.67;;
19623;SDS011;9959;49.798;9.928;2023-01-10T12:32:32;12.05;;;2.67;;
19623;SDS011;9959;49.798;9.928;2023-01-10T12:35:05;6.97;;;2.92;;
19623;SDS011;9959;49.798;9.928;2023-01-10T12:37:40;15.52;;;3.17;;
19623;SDS011;9959;49.798;9.928;2023-01-10T12:42:51;13.32;;;2.65;;
19623;SDS011;9959;49.798;9.928;2023-01-10T12:45:45;8.77;;;2.70;;
19623;SDS011;9959;49.798;9.928;2023-01-10T12:50:48;8.10;;;2.92;;
19623;SDS011;9959;49.798;9.928;2023-01-10T12:53:29;8.00;;;2.50;;
19623;SDS011;9959;49.798;9.928;2023-01-10T12:55:57;9.32;;;2.60;;
19623;SDS011;9959;49.798;9.928;2023-01-10T12:58:34;9.00;;;3.05;;
19623;SDS011;9959;49.798;9.928;2023-01-10T13:01:15;10.35;;;2.78;;
19623;SDS011;9959;49.798;9.928;2023-01-10T13:03:48;10.60;;;3.33;;
19623;SDS011;9959;49.798;9.928;2023-01-10T13:06:29;9.73;;;2.63;;
19623;SDS011;9959;49.798;9.928;2023-01-10T13:08:48;14.50;;;3.33;;
19623;SDS011;9959;49.798;9.928;2023-01-10T13:11:15;9.38;;;2.30;;
19623;SDS011;9959;49.798;9.928;2023-01-10T13:13:47;13.73;;;3.60;;
19623;SDS011;9959;49.798;9.928;2023-01-10T13:19:26;11.50;;;3.33;;
19623;SDS011;9959;49.798;9.928;2023-01-10T13:24:58;8.30;;;2.70;;
19623;SDS011;9959;49.798;9.928;2023-01-10T13:27:30;13.40;;;3.15;;
19623;SDS011;9959;49.798;9.928;2023-01-10T13:29:59;9.57;;;2.58;;
19623;SDS011;9959;49.798;9.928;2023-01-10T13:32:32;7.80;;;2.10;;
19623;SDS011;9959;49.798;9.928;2023-01-10T13:35:13;10.77;;;3.05;;
19623;SDS011;9959;49.798;9.928;2023-01-10T13:37:43;13.13;;;2.65;;
19623;SDS011;9959;49.798;9.928;2023-01-10T13:42:49;11.20;;;2.80;;
19623;SDS011;9959;49.798;9.928;2023-01-10T13:45:53;16.30;;;3.00;;
19623;SDS011;9959;49.798;9.928;2023-01-10T13:48:41;14.30;;;2.78;;
19623;SDS011;9959;49.798;9.928;2023-01-10T13:51:29;8.23;;;2.92;;
19623;SDS011;9959;49.798;9.928;2023-01-10T13:53:57;10.88;;;2.72;;
19623;SDS011;9959;49.798;9.928;2023-01-10T13:56:36;14.75;;;3.20;;
19623;SDS011;9959;49.798;9.928;2023-01-10T14:01:51;18.85;;;3.75;;
19623;SDS011;9959;49.798;9.928;2023-01-10T14:04:43;17.55;;;3.13;;
19623;SDS011;9959;49.798;9.928;2023-01-10T14:09:48;13.07;;;2.78;;
19623;SDS011;9959;49.798;9.928;2023-01-10T14:14:55;11.75;;;2.78;;
19623;SDS011;9959;49.798;9.928;2023-01-10T14:17:26;20.10;;;3.50;;
19623;SDS011;9959;49.798;9.928;2023-01-10T14:20:04;19.58;;;4.03;;
19623;SDS011;9959;49.798;9.928;2023-01-10T14:22:40;15.55;;;3.42;;
19623;SDS011;9959;49.798;9.928;2023-01-10T14:25:22;12.35;;;3.00;;
19623;SDS011;9959;49.798;9.928;2023-01-10T14:27:51;13.82;;;3.08;;
19623;SDS011;9959;49.798;9.928;2023-01-10T14:32:48;13.18;;;2.75;;
19623;SDS011;9959;49.798;9.928;2023-01-10T14:35:19;15.35;;;3.65;;
19623;SDS011;9959;49.798;9.928;2023-01-10T14:37:52;12.20;;;3.47;;
19623;SDS011;9959;49.798;9.928;2023-01-10T14:40:27;15.25;;;2.90;;
19623;SDS011;9959;49.798;9.928;2023-01-10T14:42:58;15.85;;;3.25;;
19623;SDS011;9959;49.798;9.928;2023-01-10T14:45:30;21.30;;;3.22;;
19623;SDS011;9959;49.798;9.928;2023-01-10T14:50:48;14.73;;;4.20;;
19623;SDS011;9959;49.798;9.928;2023-01-10T14:55:48;20.60;;;4.10;;
19623;SDS011;9959;49.798;9.928;2023-01-10T14:58:15;13.52;;;3.83;;
19623;SDS011;9959;49.798;9.928;2023-01-10T15:00:43;12.65;;;3.17;;
19623;SDS011;9959;49.798;9.928;2023-01-10T15:03:18;16.25;;;3.70;;
19623;SDS011;9959;49.798;9.928;2023-01-10T15:05:47;12.68;;;3.63;;
19623;SDS011;9959;49.798;9.928;2023-01-10T15:08:20;17.35;;;3.38;;
19623;SDS011;9959;49.798;9.928;2023-01-10T15:10:48;20.63;;;3.97;;
19623;SDS011;9959;49.798;9.928;2023-01-10T15:13:17;15.05;;;3.70;;
19623;SDS011;9959;49.798;9.928;2023-01-10T15:15:46;14.95;;;3.33;;
19623;SDS011;9959;49.798;9.928;2023-01-10T15:21:11;13.63;;;3.83;;
19623;SDS011;9959;49.798;9.928;2023-01-10T15:23:40;12.80;;;3.30;;
19623;SDS011;9959;49.798;9.928;2023-01-10T15:26:13;17.30;;;3.70;;
19623;SDS011;9959;49.798;9.928;2023-01-10T15:28:42;18.90;;;3.28;;
19623;SDS011;9959;49.798;9.928;2023-01-10T15:31:14;11.25;;;3.25;;
19623;SDS011;9959;49.798;9.928;2023-01-10T15:33:43;22.83;;;4.65;;
19623;SDS011;9959;49.798;9.928;2023-01-10T15:36:13;18.63;;;3.25;;
19623;SDS011;9959;49.798;9.928;2023-01-10T15:38:43;10.70;;;2.92;;
19623;SDS011;9959;49.798;9.928;2023-01-10T15:41:19;12.02;;;2.75;;
19623;SDS011;9959;49.798;9.928;2023-01-10T15:43:47;15.80;;;3.10;;
19623;SDS011;9959;49.798;9.928;2023-01-10T15:46:19;13.85;;;3.42;;
19623;SDS011;9959;49.798;9.928;2023-01-10T15:48:58;22.35;;;3.85;;
19623;SDS011;9959;49.798;9.928;2023-01-10T15:51:33;16.25;;;3.72;;
19623;SDS011;9959;49.798;9.928;2023-01-10T15:54:03;23.60;;;3.88;;
19623;SDS011;9959;49.798;9.928;2023-01-10T15:56:49;24.25;;;4.47;;
19623;SDS011;9959;49.798;9.928;2023-01-10T16:01:51;15.90;;;3.47;;
19623;SDS011;9959;49.798;9.928;2023-01-10T16:04:23;17.98;;;5.32;;
19623;SDS011;9959;49.798;9.928;2023-01-10T16:06:51;14.60;;;4.22;;
19623;SDS011;9959;49.798;9.928;2023-01-10T16:09:20;15.25;;;3.95;;
19623;SDS011;9959;49.798;9.928;2023-01-10T16:11:51;15.63;;;3.63;;
19623;SDS011;9959;49.798;9.928;2023-01-10T16:14:37;18.92;;;4.20;;
19623;SDS011;9959;49.798;9.928;2023-01-10T16:17:04;18.67;;;3.78;;
19623;SDS011;9959;49.798;9.928;2023-01-10T16:19:31;14.38;;;4.15;;
19623;SDS011;9959;49.798;9.928;2023-01-10T16:21:59;19.42;;;4.25;;
19623;SDS011;9959;49.798;9.928;2023-01-10T16:24:28;21.35;;;5.20;;
19623;SDS011;9959;49.798;9.928;2023-01-10T16:26:58;17.58;;;4.32;;
19623;SDS011;9959;49.798;9.928;2023-01-10T16:29:28;20.98;;;4.60;;
19623;SDS011;9959;49.798;9.928;2023-01-10T16:31:55;20.70;;;5.18;;
19623;SDS011;9959;49.798;9.928;2023-01-10T16:34:22;14.15;;;4.55;;
19623;SDS011;9959;49.798;9.928;2023-01-10T16:36:51;18.35;;;4.10;;
19623;SDS011;9959;49.798;9.928;2023-01-10T16:39:19;15.27;;;4.20;;
19623;SDS011;9959;49.798;9.928;2023-01-10T16:41:48;23.52;;;5.45;;
19623;SDS011;9959;49.798;9.928;2023-01-10T16:44:33;17.27;;;4.05;;
19623;SDS011;9959;49.798;9.928;2023-01-10T16:47:01;22.23;;;4.40;;
19623;SDS011;9959;49.798;9.928;2023-01-10T16:49:31;14.48;;;3.72;;
19623;SDS011;9959;49.798;9.928;2023-01-10T16:51:58;15.07;;;4.20;;
19623;SDS011;9959;49.798;9.928;2023-01-10T16:54:25;19.35;;;4.50;;
19623;SDS011;9959;49.798;9.928;2023-01-10T16:56:52;21.20;;;4.75;;
19623;SDS011;9959;49.798;9.928;2023-01-10T16:59:19;15.80;;;4.50;;
19623;SDS011;9959;49.798;9.928;2023-01-10T17:01:49;23.83;;;5.22;;
19623;SDS011;9959;49.798;9.928;2023-01-10T17:06:48;17.27;;;4.60;;
19623;SDS011;9959;49.798;9.928;2023-01-10T17:11:48;19.13;;;4.63;;
19623;SDS011;9959;49.798;9.928;2023-01-10T17:14:19;24.70;;;5.63;;
19623;SDS011;9959;49.798;9.928;2023-01-10T17:16:46;17.95;;;4.97;;
19623;SDS011;9959;49.798;9.928;2023-01-10T17:19:14;22.05;;;5.28;;
19623;SDS011;9959;49.798;9.928;2023-01-10T17:21:40;14.43;;;4.60;;
19623;SDS011;9959;49.798;9.928;2023-01-10T17:24:08;18.65;;;5.13;;
19623;SDS011;9959;49.798;9.928;2023-01-10T17:26:36;20.25;;;4.82;;